Laneville, Texas
Current Conditions -  °F | °C
As of 6:35 PM on Monday 24 Nov 2014 (Local Time) from KRFI Reporting Station
Clear Clear  
Wind Chill: 46°   Ceiling: Unl
Heat Index: 46°   Visibility: 10mi
Dew Point: 36°   Wind: 0mph
Humidity: 68%   Direction: NA
Pressure: 30.08"   Gusts: NA
Location:  31.97°N, 94.81°W
Report Text: KRFI 250035Z AUTO 00000KT 10SM CLR 08/02 A3008 RMK AO2 T00760020
Loading
Personal Weather Stations






























Interactive Weather Map New forecast layout! Learn more

10-Day Weather Forecast

Advertisements
Track Severe Weather on mobile